createdAt,value
2023-03-16T00:02:14.845Z,73.29
2023-03-16T00:04:41.308Z,73.50
2023-03-16T00:07:10.509Z,73.30
2023-03-16T00:09:41.251Z,72.94
2023-03-16T00:12:15.639Z,73.84
2023-03-16T00:14:44.255Z,73.86
2023-03-16T00:17:18.838Z,73.81
2023-03-16T00:19:55.182Z,73.89
2023-03-16T00:22:23.691Z,73.80
2023-03-16T00:24:50.271Z,74.38
2023-03-16T00:27:17.343Z,74.18
2023-03-16T00:29:48.267Z,74.36
2023-03-16T00:32:20.738Z,74.73
2023-03-16T00:34:47.722Z,75.03
2023-03-16T00:37:16.742Z,74.85
2023-03-16T00:39:43.656Z,74.47
2023-03-16T00:42:11.022Z,74.84
2023-03-16T00:44:37.937Z,75.69
2023-03-16T00:47:06.405Z,75.16
2023-03-16T00:49:34.847Z,75.77
2023-03-16T00:52:02.502Z,75.56
2023-03-16T00:54:29.712Z,75.94
2023-03-16T00:56:56.122Z,75.56
2023-03-16T00:59:22.503Z,76.06
2023-03-16T01:01:48.929Z,76.78
2023-03-16T01:04:15.376Z,76.10
2023-03-16T01:06:41.902Z,76.54
2023-03-16T01:09:09.595Z,76.70
2023-03-16T01:11:36.401Z,77.06
2023-03-16T01:14:03.717Z,76.94
2023-03-16T01:16:33.742Z,77.14
2023-03-16T01:19:01.327Z,77.18
2023-03-16T01:21:28.484Z,76.84
2023-03-16T01:23:54.929Z,77.59
2023-03-16T01:26:22.966Z,77.35
2023-03-16T01:28:49.504Z,77.13
2023-03-16T01:31:16.056Z,77.58
2023-03-16T01:33:43.594Z,78.00
2023-03-16T01:36:20.310Z,77.91
2023-03-16T01:38:47.239Z,77.82
2023-03-16T01:41:14.438Z,78.28
2023-03-16T01:43:42.071Z,78.73
2023-03-16T01:46:19.627Z,78.25
2023-03-16T01:48:54.991Z,78.34
2023-03-16T01:51:27.056Z,78.24
2023-03-16T01:53:59.186Z,78.42
2023-03-16T01:56:34.549Z,79.29
2023-03-16T01:59:05.192Z,79.53
2023-03-16T02:01:32.043Z,79.16
2023-03-16T02:04:07.942Z,79.02
2023-03-16T02:06:35.584Z,79.32
2023-03-16T02:09:02.672Z,78.95
2023-03-16T02:11:30.018Z,79.37
2023-03-16T02:14:02.586Z,79.94
2023-03-16T02:16:29.019Z,79.93
2023-03-16T02:18:55.577Z,79.54
2023-03-16T02:21:54.672Z,80.31
2023-03-16T02:24:21.668Z,80.19
2023-03-16T02:27:01.902Z,80.07
2023-03-16T02:29:53.230Z,79.93
2023-03-16T02:32:22.825Z,80.16
2023-03-16T02:34:49.379Z,80.24
2023-03-16T02:37:15.973Z,79.88
2023-03-16T02:39:45.275Z,80.69
2023-03-16T02:42:21.943Z,80.40
2023-03-16T02:44:57.851Z,80.09
2023-03-16T02:47:34.637Z,80.70
2023-03-16T02:50:04.856Z,80.71
2023-03-16T02:52:31.440Z,81.35
2023-03-16T02:54:57.860Z,81.91
2023-03-16T02:57:24.273Z,81.42
2023-03-16T02:59:51.963Z,82.13
2023-03-16T03:02:18.492Z,82.01
2023-03-16T03:04:46.328Z,82.60
2023-03-16T03:07:14.356Z,82.74
2023-03-16T03:09:44.430Z,82.68
2023-03-16T03:12:11.537Z,82.50
2023-03-16T03:14:38.121Z,83.26
2023-03-16T03:17:07.298Z,83.18
2023-03-16T03:19:34.677Z,82.93
2023-03-16T03:22:04.349Z,82.86
2023-03-16T03:24:31.740Z,83.68
2023-03-16T03:27:00.684Z,83.29
2023-03-16T03:29:34.597Z,84.12
2023-03-16T03:32:02.066Z,83.77
2023-03-16T03:34:29.307Z,83.96
2023-03-16T03:36:55.941Z,84.41
2023-03-16T03:39:22.367Z,84.25
2023-03-16T03:41:48.767Z,84.52
2023-03-16T03:44:15.332Z,84.98
2023-03-16T03:46:41.967Z,84.85
2023-03-16T03:49:08.497Z,85.62
2023-03-16T03:51:35.253Z,85.30
2023-03-16T03:54:01.717Z,85.62
2023-03-16T03:56:28.147Z,85.43
2023-03-16T03:58:54.628Z,85.74
2023-03-16T04:01:21.650Z,85.69
2023-03-16T04:03:48.846Z,86.62
2023-03-16T04:06:15.394Z,86.71
2023-03-16T04:08:42.265Z,86.17
2023-03-16T04:11:08.788Z,86.98
2023-03-16T04:13:35.326Z,86.92
2023-03-16T04:16:04.632Z,87.59
2023-03-16T04:18:38.604Z,87.24
2023-03-16T04:21:06.522Z,87.42
2023-03-16T04:23:33.774Z,88.09
2023-03-16T04:26:01.440Z,88.23
2023-03-16T04:28:27.914Z,87.68
2023-03-16T04:30:57.261Z,87.91
2023-03-16T04:33:23.762Z,88.30
2023-03-16T04:35:50.290Z,88.17
2023-03-16T04:38:16.786Z,88.83
2023-03-16T04:40:43.242Z,88.93
2023-03-16T04:43:09.666Z,89.08
2023-03-16T04:45:36.221Z,88.88
2023-03-16T04:48:03.263Z,89.04
2023-03-16T04:50:29.959Z,89.12
2023-03-16T04:52:56.537Z,89.11
2023-03-16T04:55:23.307Z,89.26
2023-03-16T04:57:50.434Z,89.09
2023-03-16T05:00:19.165Z,89.27
2023-03-16T05:02:50.053Z,89.28
2023-03-16T05:05:16.731Z,89.34
2023-03-16T05:07:43.677Z,88.92
2023-03-16T05:10:18.794Z,88.80
2023-03-16T05:12:45.813Z,89.01
2023-03-16T05:15:12.446Z,89.28
2023-03-16T05:17:39.037Z,89.25
2023-03-16T05:20:09.136Z,88.75
2023-03-16T05:22:35.846Z,88.21
2023-03-16T05:25:04.660Z,88.35
2023-03-16T05:27:31.280Z,88.79
2023-03-16T05:29:57.695Z,88.40
2023-03-16T05:32:24.416Z,88.47
2023-03-16T05:34:53.161Z,88.98
2023-03-16T05:37:19.610Z,88.78
2023-03-16T05:39:46.048Z,89.20
2023-03-16T05:42:12.450Z,88.99
2023-03-16T05:44:39.416Z,89.04
2023-03-16T05:47:06.030Z,89.10
2023-03-16T05:49:32.561Z,89.51
2023-03-16T05:51:59.033Z,88.98
2023-03-16T05:54:25.470Z,89.33
2023-03-16T05:56:52.354Z,89.36
2023-03-16T05:59:18.774Z,89.53
2023-03-16T06:01:45.226Z,89.75
2023-03-16T06:04:11.825Z,90.14
2023-03-16T06:06:38.374Z,89.92
2023-03-16T06:09:04.856Z,89.89
2023-03-16T06:11:32.938Z,90.46
2023-03-16T06:14:01.184Z,90.35
2023-03-16T06:16:27.831Z,90.43
2023-03-16T06:18:58.529Z,90.41
2023-03-16T06:21:26.155Z,90.70
2023-03-16T06:23:52.666Z,90.88
2023-03-16T06:26:19.123Z,90.75
2023-03-16T06:28:45.596Z,90.56
2023-03-16T06:31:12.214Z,90.51
2023-03-16T06:33:38.851Z,90.55
2023-03-16T06:36:05.551Z,90.68
2023-03-16T06:38:32.116Z,90.59
2023-03-16T06:40:58.559Z,90.29
2023-03-16T06:43:25.005Z,90.39
2023-03-16T06:45:52.336Z,90.94
2023-03-16T06:48:18.806Z,91.29
2023-03-16T06:50:46.631Z,90.95
2023-03-16T06:53:13.169Z,90.94
2023-03-16T06:55:39.683Z,91.27
2023-03-16T06:58:06.136Z,91.54
2023-03-16T07:00:34.162Z,91.69
2023-03-16T07:03:01.979Z,91.71
2023-03-16T07:05:28.447Z,91.50
2023-03-16T07:07:54.896Z,91.15
2023-03-16T07:10:21.871Z,91.63
2023-03-16T07:12:48.510Z,91.60
2023-03-16T07:15:15.002Z,91.26
2023-03-16T07:17:42.717Z,91.44
2023-03-16T07:20:12.242Z,90.98
2023-03-16T07:22:39.672Z,90.72
2023-03-16T07:25:07.154Z,90.73
2023-03-16T07:27:33.674Z,90.62
2023-03-16T07:30:00.439Z,90.83
2023-03-16T07:32:30.069Z,90.54
2023-03-16T07:34:59.171Z,90.57
2023-03-16T07:37:26.680Z,90.52
2023-03-16T07:39:53.253Z,90.31
2023-03-16T07:42:19.920Z,90.47
2023-03-16T07:44:46.407Z,90.70
2023-03-16T07:47:13.619Z,90.26
2023-03-16T07:49:41.653Z,90.50
2023-03-16T07:52:08.419Z,89.98
2023-03-16T07:54:34.953Z,90.82
2023-03-16T07:57:01.462Z,90.17
2023-03-16T07:59:27.868Z,90.44
2023-03-16T08:01:54.348Z,90.67
2023-03-16T08:04:22.284Z,90.55
2023-03-16T08:06:48.974Z,90.61
2023-03-16T08:09:15.472Z,90.90
2023-03-16T08:11:41.873Z,90.76
2023-03-16T08:14:08.702Z,90.84
2023-03-16T08:16:36.917Z,91.17
2023-03-16T08:19:03.909Z,90.88
2023-03-16T08:21:30.357Z,91.24
2023-03-16T08:23:56.790Z,90.92
2023-03-16T08:26:24.357Z,90.17
2023-03-16T08:28:52.178Z,90.27
2023-03-16T08:31:20.618Z,90.00
2023-03-16T08:33:48.003Z,89.25
2023-03-16T08:36:17.616Z,88.31
2023-03-16T08:39:03.839Z,88.53
2023-03-16T08:41:32.998Z,88.40
2023-03-16T08:44:00.003Z,88.44
2023-03-16T08:46:27.059Z,87.84
2023-03-16T08:48:55.797Z,87.84
2023-03-16T08:51:22.249Z,87.19
2023-03-16T08:53:48.691Z,87.06
2023-03-16T08:56:15.135Z,86.95
2023-03-16T08:58:46.018Z,86.35
2023-03-16T09:01:14.740Z,86.76
2023-03-16T09:03:42.318Z,86.27
2023-03-16T09:06:10.261Z,86.28
2023-03-16T09:08:39.124Z,86.11
2023-03-16T09:11:08.486Z,86.07
2023-03-16T09:13:36.170Z,85.63
2023-03-16T09:16:03.119Z,84.67
2023-03-16T09:18:29.884Z,84.76
2023-03-16T09:21:01.413Z,83.84
2023-03-16T09:23:30.505Z,84.21
2023-03-16T09:25:59.564Z,84.30
2023-03-16T09:28:30.842Z,84.47
2023-03-16T09:31:00.266Z,84.41
2023-03-16T09:33:28.766Z,84.38
2023-03-16T09:35:57.489Z,84.28
2023-03-16T09:38:26.410Z,83.81
2023-03-16T09:41:11.086Z,83.61
2023-03-16T09:43:59.379Z,83.57
2023-03-16T09:46:29.811Z,83.46
2023-03-16T09:48:57.969Z,83.40
2023-03-16T09:51:53.980Z,82.99
2023-03-16T09:54:29.620Z,82.69
2023-03-16T09:56:57.571Z,82.70
2023-03-16T09:59:25.376Z,82.35
2023-03-16T10:02:16.405Z,82.52
2023-03-16T10:05:00.781Z,82.16
2023-03-16T10:07:52.696Z,80.98
2023-03-16T10:10:34.420Z,80.54
2023-03-16T10:13:05.388Z,79.52
2023-03-16T10:15:37.767Z,78.98
2023-03-16T10:18:32.275Z,77.75
2023-03-16T10:21:00.025Z,78.48
2023-03-16T10:23:26.592Z,78.10
2023-03-16T10:25:57.121Z,76.63
2023-03-16T10:28:28.765Z,75.56
2023-03-16T10:30:58.581Z,75.60
2023-03-16T10:33:30.178Z,75.22
2023-03-16T10:36:19.737Z,74.09
2023-03-16T10:38:51.892Z,74.09
2023-03-16T10:41:18.356Z,72.56
2023-03-16T10:43:53.171Z,72.28
2023-03-16T10:46:19.827Z,73.15
2023-03-16T10:48:54.923Z,72.90
2023-03-16T10:51:26.089Z,71.02
2023-03-16T10:53:53.255Z,71.24
2023-03-16T10:56:23.533Z,70.89
2023-03-16T10:58:50.155Z,70.53
2023-03-16T11:01:20.843Z,70.90
2023-03-16T11:03:54.014Z,70.08
2023-03-16T11:06:33.437Z,70.24
2023-03-16T11:09:14.275Z,70.33
2023-03-16T11:11:51.098Z,69.37
2023-03-16T11:14:22.358Z,69.35
2023-03-16T11:17:12.541Z,69.51
2023-03-16T11:19:57.710Z,67.82
2023-03-16T11:22:25.763Z,67.08
2023-03-16T11:25:07.245Z,67.64
2023-03-16T11:28:00.666Z,67.71
2023-03-16T11:30:31.030Z,67.06
2023-03-16T11:33:00.549Z,67.07
2023-03-16T11:35:38.538Z,66.70
2023-03-16T11:38:41.250Z,67.73
2023-03-16T11:41:18.808Z,66.51
2023-03-16T11:44:08.642Z,66.46
2023-03-16T11:46:38.091Z,65.47
2023-03-16T11:49:39.979Z,66.14
2023-03-16T11:52:33.087Z,65.21
2023-03-16T11:55:14.451Z,65.80
2023-03-16T11:57:43.608Z,65.17
2023-03-16T12:00:52.775Z,65.33
2023-03-16T12:04:01.929Z,65.06
2023-03-16T12:06:34.629Z,64.66
2023-03-16T12:09:19.901Z,63.97
2023-03-16T12:12:00.050Z,64.00
2023-03-16T12:14:46.971Z,62.56
2023-03-16T12:17:19.480Z,62.00
2023-03-16T12:20:19.746Z,61.88
2023-03-16T12:23:00.993Z,62.33
2023-03-16T12:25:32.847Z,60.99
2023-03-16T12:28:05.422Z,61.01
2023-03-16T12:31:04.174Z,61.26
2023-03-16T12:33:45.644Z,61.08
2023-03-16T12:36:38.854Z,60.37
2023-03-16T12:39:18.670Z,58.82
2023-03-16T12:42:21.388Z,58.61
2023-03-16T12:44:51.969Z,56.58
2023-03-16T12:47:33.871Z,56.90
2023-03-16T12:50:06.144Z,56.68
2023-03-16T12:52:44.603Z,56.55
2023-03-16T12:55:17.501Z,56.93
2023-03-16T12:57:46.024Z,55.69
2023-03-16T13:00:14.484Z,56.41
2023-03-16T13:02:55.658Z,55.99
2023-03-16T13:05:34.746Z,54.87
2023-03-16T13:08:22.878Z,55.81
2023-03-16T13:11:07.740Z,56.09
2023-03-16T13:13:34.286Z,54.50
2023-03-16T13:16:10.956Z,54.74
2023-03-16T13:18:45.183Z,53.39
2023-03-16T13:21:21.447Z,53.04
2023-03-16T13:24:01.367Z,54.53
2023-03-16T13:26:31.561Z,52.77
2023-03-16T13:28:58.782Z,51.56
2023-03-16T13:31:34.553Z,53.15
2023-03-16T13:34:01.200Z,52.33
2023-03-16T13:36:30.043Z,52.44
2023-03-16T13:39:07.604Z,50.99
2023-03-16T13:41:34.379Z,50.67
2023-03-16T13:44:00.832Z,50.62
2023-03-16T13:46:29.473Z,51.06
2023-03-16T13:49:00.783Z,51.30
2023-03-16T13:51:30.956Z,51.19
2023-03-16T13:53:57.538Z,50.12
2023-03-16T13:56:28.875Z,50.25
2023-03-16T13:58:57.860Z,50.24
2023-03-16T14:01:27.924Z,49.97
2023-03-16T14:03:58.275Z,50.67
2023-03-16T14:06:30.550Z,49.92
2023-03-16T14:09:04.533Z,48.11
2023-03-16T14:11:31.448Z,49.34
2023-03-16T14:14:00.469Z,49.32
2023-03-16T14:16:29.778Z,49.46
2023-03-16T14:19:14.576Z,49.45
2023-03-16T14:21:48.902Z,48.34
2023-03-16T14:24:38.414Z,49.34
2023-03-16T14:27:20.650Z,48.55
2023-03-16T14:29:54.217Z,48.25
2023-03-16T14:32:32.685Z,48.36
2023-03-16T14:35:18.314Z,48.26
2023-03-16T14:37:45.043Z,47.62
2023-03-16T14:40:30.790Z,47.48
2023-03-16T14:43:02.605Z,47.19
2023-03-16T14:45:36.571Z,48.66
2023-03-16T14:48:16.947Z,48.00
2023-03-16T14:50:44.335Z,48.70
2023-03-16T14:53:11.236Z,48.39
2023-03-16T14:55:37.908Z,47.59
2023-03-16T14:58:04.652Z,46.90
2023-03-16T15:00:37.083Z,47.31
2023-03-16T15:03:11.676Z,47.06
2023-03-16T15:05:43.324Z,47.04
2023-03-16T15:08:15.824Z,47.40
2023-03-16T15:10:44.144Z,48.21
2023-03-16T15:13:52.766Z,47.53
2023-03-16T15:16:21.991Z,47.79
2023-03-16T15:18:49.008Z,48.60
2023-03-16T15:21:25.111Z,48.30
2023-03-16T15:23:52.150Z,48.32
2023-03-16T15:26:25.236Z,47.94
2023-03-16T15:28:51.834Z,48.31
2023-03-16T15:31:18.343Z,48.13
2023-03-16T15:33:45.540Z,47.71
2023-03-16T15:36:17.331Z,48.09
2023-03-16T15:38:47.284Z,47.73
2023-03-16T15:41:14.424Z,47.22
2023-03-16T15:43:40.995Z,47.13
2023-03-16T15:46:07.484Z,47.13
2023-03-16T15:48:34.008Z,47.87
2023-03-16T15:51:04.583Z,47.24
2023-03-16T15:53:41.385Z,47.59
2023-03-16T15:56:12.017Z,48.43
2023-03-16T15:58:41.921Z,47.82
2023-03-16T16:01:09.714Z,47.75
2023-03-16T16:03:36.263Z,47.08
2023-03-16T16:06:02.785Z,47.35
2023-03-16T16:08:29.399Z,47.36
2023-03-16T16:10:56.426Z,47.74
2023-03-16T16:13:37.585Z,48.43
2023-03-16T16:16:13.340Z,48.79
2023-03-16T16:18:43.505Z,48.38
2023-03-16T16:21:16.991Z,47.74
2023-03-16T16:23:43.742Z,48.72
2023-03-16T16:26:45.479Z,48.65
2023-03-16T16:29:19.852Z,49.60
2023-03-16T16:31:46.649Z,49.71
2023-03-16T16:34:15.494Z,49.93
2023-03-16T16:36:42.028Z,49.60
2023-03-16T16:39:09.571Z,50.10
2023-03-16T16:41:37.295Z,50.14
2023-03-16T16:44:08.302Z,49.90
2023-03-16T16:46:41.401Z,49.98
2023-03-16T16:49:15.290Z,50.24
2023-03-16T16:51:42.642Z,50.23
2023-03-16T16:54:16.594Z,50.54
2023-03-16T16:56:44.284Z,51.22
2023-03-16T16:59:18.228Z,51.76
2023-03-16T17:01:46.848Z,52.13
2023-03-16T17:04:23.458Z,51.98
2023-03-16T17:06:55.210Z,51.89
2023-03-16T17:09:23.323Z,52.81
2023-03-16T17:11:51.139Z,53.05
2023-03-16T17:14:20.214Z,53.75
2023-03-16T17:16:48.459Z,54.09
2023-03-16T17:19:27.099Z,54.38
2023-03-16T17:21:56.790Z,54.52
2023-03-16T17:24:23.432Z,54.72
2023-03-16T17:26:56.961Z,54.73
2023-03-16T17:29:33.478Z,54.97
2023-03-16T17:32:16.273Z,55.41
2023-03-16T17:34:42.737Z,55.50
2023-03-16T17:37:19.071Z,55.33
2023-03-16T17:39:45.818Z,55.73
2023-03-16T17:42:19.928Z,56.40
2023-03-16T17:44:47.923Z,56.06
2023-03-16T17:47:26.633Z,56.13
2023-03-16T17:49:54.093Z,55.91
2023-03-16T17:52:26.160Z,56.19
2023-03-16T17:54:53.866Z,56.15
2023-03-16T17:57:27.759Z,56.47
2023-03-16T17:59:54.969Z,56.45
2023-03-16T18:02:24.392Z,56.54
2023-03-16T18:04:50.946Z,56.51
2023-03-16T18:07:17.836Z,57.36
2023-03-16T18:09:44.666Z,57.44
2023-03-16T18:12:11.175Z,57.29
2023-03-16T18:14:39.716Z,57.72
2023-03-16T18:17:22.694Z,57.99
2023-03-16T18:19:49.709Z,58.51
2023-03-16T18:22:20.643Z,58.59
2023-03-16T18:24:48.559Z,59.06
2023-03-16T18:27:15.114Z,59.20
2023-03-16T18:29:48.147Z,59.13
2023-03-16T18:32:22.883Z,59.58
2023-03-16T18:34:54.706Z,59.62
2023-03-16T18:37:28.063Z,60.28
2023-03-16T18:39:55.029Z,60.41
2023-03-16T18:42:23.824Z,60.62
2023-03-16T18:44:51.129Z,61.20
2023-03-16T18:47:24.240Z,61.09
2023-03-16T18:49:54.075Z,61.49
2023-03-16T18:52:30.599Z,61.87
2023-03-16T18:54:58.186Z,62.02
2023-03-16T18:57:28.659Z,62.69
2023-03-16T18:59:55.421Z,63.05
2023-03-16T19:02:42.087Z,63.19
2023-03-16T19:05:15.454Z,63.29
2023-03-16T19:07:44.370Z,63.79
2023-03-16T19:10:19.896Z,63.85
2023-03-16T19:12:46.550Z,64.07
2023-03-16T19:15:35.536Z,64.35
2023-03-16T19:18:02.116Z,64.32
2023-03-16T19:20:31.867Z,65.09
2023-03-16T19:23:14.685Z,64.91
2023-03-16T19:25:42.512Z,64.96
2023-03-16T19:28:29.819Z,64.88
2023-03-16T19:30:57.235Z,65.20
2023-03-16T19:33:26.290Z,65.11
2023-03-16T19:35:54.631Z,65.40
2023-03-16T19:38:25.683Z,65.61
2023-03-16T19:40:58.038Z,66.15
2023-03-16T19:43:25.901Z,65.89
2023-03-16T19:45:52.661Z,65.59
2023-03-16T19:48:24.270Z,66.10
2023-03-16T19:50:51.314Z,65.88
2023-03-16T19:53:23.096Z,66.25
2023-03-16T19:55:52.200Z,66.06
2023-03-16T19:58:35.898Z,66.47
2023-03-16T20:01:02.958Z,66.70
2023-03-16T20:03:33.172Z,65.89
2023-03-16T20:05:59.634Z,66.80
2023-03-16T20:08:28.844Z,66.28
2023-03-16T20:11:02.111Z,66.37
2023-03-16T20:13:30.721Z,66.56
2023-03-16T20:15:57.294Z,66.77
2023-03-16T20:18:23.852Z,66.44
2023-03-16T20:20:50.764Z,66.88
2023-03-16T20:23:23.017Z,66.74
2023-03-16T20:25:52.090Z,66.48
2023-03-16T20:28:21.463Z,66.88
2023-03-16T20:30:49.572Z,66.68
2023-03-16T20:33:22.767Z,67.28
2023-03-16T20:35:53.345Z,67.39
2023-03-16T20:38:20.074Z,67.08
2023-03-16T20:40:50.256Z,67.23
2023-03-16T20:43:30.880Z,67.48
2023-03-16T20:46:01.110Z,66.99
2023-03-16T20:48:28.251Z,67.25
2023-03-16T20:50:56.167Z,67.19
2023-03-16T20:53:23.488Z,67.08
2023-03-16T20:55:51.471Z,67.31
2023-03-16T20:58:31.405Z,67.35
2023-03-16T21:00:58.073Z,67.42
2023-03-16T21:03:29.914Z,67.47
2023-03-16T21:05:59.903Z,67.84
2023-03-16T21:08:27.220Z,67.07
2023-03-16T21:10:56.288Z,67.68
2023-03-16T21:13:33.611Z,67.65
2023-03-16T21:16:02.335Z,67.31
2023-03-16T21:18:30.439Z,67.82
2023-03-16T21:20:58.258Z,67.88
2023-03-16T21:23:24.896Z,67.64
2023-03-16T21:25:54.828Z,67.69
2023-03-16T21:28:24.147Z,67.99
2023-03-16T21:30:53.707Z,68.19
2023-03-16T21:33:37.795Z,67.78
2023-03-16T21:36:10.039Z,67.99
2023-03-16T21:38:36.744Z,68.63
2023-03-16T21:41:03.635Z,68.52
2023-03-16T21:43:31.155Z,68.89
2023-03-16T21:45:58.820Z,68.86
2023-03-16T21:48:38.019Z,68.83
2023-03-16T21:51:15.347Z,68.73
2023-03-16T21:53:43.843Z,68.86
2023-03-16T21:56:16.230Z,69.27
2023-03-16T21:58:43.981Z,68.86
2023-03-16T22:01:32.234Z,68.34
2023-03-16T22:04:06.509Z,68.39
2023-03-16T22:06:33.414Z,68.65
2023-03-16T22:09:00.751Z,68.67
2023-03-16T22:11:29.442Z,69.50
2023-03-16T22:13:58.991Z,68.66
2023-03-16T22:16:28.689Z,69.08
2023-03-16T22:18:57.135Z,68.56
2023-03-16T22:21:33.107Z,69.38
2023-03-16T22:24:01.045Z,69.45
2023-03-16T22:26:28.737Z,69.13
2023-03-16T22:28:56.244Z,69.29
2023-03-16T22:31:37.009Z,69.86
2023-03-16T22:34:04.772Z,69.54
2023-03-16T22:36:33.166Z,69.34
2023-03-16T22:39:08.936Z,69.44
2023-03-16T22:41:35.500Z,69.32
2023-03-16T22:44:02.134Z,69.56
2023-03-16T22:46:29.612Z,69.42
2023-03-16T22:48:58.552Z,70.13
2023-03-16T22:51:37.502Z,69.99
2023-03-16T22:54:08.359Z,69.85
2023-03-16T22:56:35.428Z,69.98
2023-03-16T22:59:06.546Z,69.56
2023-03-16T23:01:34.405Z,70.08
2023-03-16T23:04:01.514Z,70.25
2023-03-16T23:06:30.285Z,70.16
2023-03-16T23:08:56.877Z,70.37
2023-03-16T23:11:28.380Z,70.26
2023-03-16T23:13:55.530Z,70.30
2023-03-16T23:16:35.768Z,70.89
2023-03-16T23:19:07.678Z,70.32
2023-03-16T23:21:40.421Z,70.51
2023-03-16T23:24:07.025Z,70.86
2023-03-16T23:26:33.601Z,70.26
2023-03-16T23:29:01.173Z,70.92
2023-03-16T23:31:27.682Z,70.62
2023-03-16T23:33:54.528Z,70.94
2023-03-16T23:36:22.936Z,70.44
2023-03-16T23:38:50.428Z,70.76
2023-03-16T23:41:21.256Z,70.54
2023-03-16T23:43:48.826Z,70.28
2023-03-16T23:46:18.542Z,70.40
2023-03-16T23:48:46.368Z,70.83
2023-03-16T23:51:27.187Z,70.94
2023-03-16T23:53:53.841Z,70.40
2023-03-16T23:56:22.141Z,70.90
2023-03-16T23:58:48.678Z,70.45
